Latest Weather Observations for Learmonth

IDW60801

Issued at 2:02 pm WST Sunday 7 February 2016 (issued every 30 minutes, with the page automatically refreshed every 10 minutes)

About weather observations | Map of weather stations | Latest weather observations for WA | Other Formats
Station Details ID: 005007 Name: LEARMONTH AIRPORT Lat: -22.24 Lon: 114.10 Height: 5.0 m
Data from the previous 72 hours. | See also: Recent months at Learmonth
Date/Time
WST
Temp
°C
App
Temp
°C
Dew
Point
Rel
Hum
%
Delta-T
°C
Wind Press
QNH
hPa
Press
MSL
hPa
Rain
since 9 am
mm
Dir
 
Spd
km/h
Gust
km/h
Spd
kts
Gust
kts
07/01:30pm 32.6 31.5 21.0 50 7.8 NNE 28 37 15 20 1007.7 - 0.0
07/01:00pm 32.9 32.3 20.5 48 8.3 NE 24 30 13 16 1008.1 - 0.0
07/12:30pm 32.9 33.5 20.3 47 8.4 NE 17 24 9 13 1008.5 - 0.0
07/12:00pm 32.5 32.8 20.5 49 8.0 NE 19 24 10 13 1008.7 1008.6 0.0
07/11:30am 31.5 31.2 19.5 49 7.9 NE 20 26 11 14 1008.8 - 0.0
07/11:00am 32.5 32.0 17.9 41 9.4 NE 17 20 9 11 1008.9 - 0.0
07/10:30am 31.4 32.3 20.8 53 7.1 NE 17 22 9 12 1009.1 - 0.0
07/10:00am 31.2 30.9 18.3 46 8.3 NE 17 20 9 11 1009.0 - 0.0
07/09:30am 30.8 30.4 18.0 46 8.2 NE 17 22 9 12 1009.0 - 0.0
07/09:00am 30.2 29.8 18.0 48 7.8 NE 17 19 9 10 1008.8 1008.7 0.0
07/08:30am 30.3 31.2 18.3 48 7.7 NE 11 15 6 8 1008.7 - 0.0
07/08:00am 29.5 30.6 18.8 52 6.9 ENE 11 15 6 8 1008.2 - 0.0
07/07:30am 28.0 28.7 16.0 48 7.4 SSE 7 9 4 5 1007.7 - 0.0
07/07:00am 25.9 27.6 16.3 55 5.9 S 2 6 1 3 1007.4 - 0.0
07/06:30am 24.0 24.5 15.6 59 5.1 SW 7 11 4 6 1007.0 - 0.0
07/06:00am 24.6 25.1 15.5 57 5.5 WSW 7 9 4 5 1006.6 1006.5 0.0
07/05:30am 25.3 25.2 15.0 53 6.2 WSW 9 13 5 7 1006.3 - 0.0
07/05:00am 25.1 24.8 15.5 55 5.8 WSW 11 15 6 8 1006.0 - 0.0
07/04:30am 24.9 24.6 16.4 59 5.2 W 13 17 7 9 1005.9 - 0.0
07/04:00am 26.1 26.3 16.8 56 5.8 W 11 15 6 8 1005.9 - 0.0
07/03:30am 26.2 26.3 17.4 58 5.5 SW 13 17 7 9 1005.9 - 0.0
07/03:00am 26.8 26.3 16.9 54 6.2 WSW 15 20 8 11 1005.8 1005.7 0.0
07/02:30am 27.2 26.7 17.0 53 6.4 WSW 15 17 8 9 1005.9 - 0.0
07/02:00am 27.5 27.0 16.8 52 6.7 WSW 15 20 8 11 1006.1 - 0.0
07/01:30am 28.2 28.1 16.9 50 7.1 WSW 13 20 7 11 1006.5 - 0.0
07/01:00am 28.2 26.9 17.2 51 6.9 WSW 20 28 11 15 1006.5 - 0.0
07/12:30am 29.0 27.6 16.9 48 7.6 WSW 20 26 11 14 1006.8 - 0.0
07/12:00am 29.6 27.9 16.3 44 8.3 WSW 20 24 11 13 1007.1 1007.0 0.0
 
Date/Time
WST
Temp
°C
App
Temp
°C
Dew
Point
Rel
Hum
%
Delta-T
°C
Wind Press
QNH
hPa
Press
MSL
hPa
Rain
since 9 am
mm
Dir
 
Spd
km/h
Gust
km/h
Spd
kts
Gust
kts
06/11:30pm 30.3 27.4 15.0 39 9.4 WSW 24 28 13 15 1007.4 - 0.0
06/11:00pm 30.6 27.7 14.1 36 10.0 WSW 22 30 12 16 1007.5 - 0.0
06/10:30pm 31.3 28.3 9.3 25 12.4 WSW 15 20 8 11 1007.6 - 0.0
06/10:00pm 31.4 29.4 10.0 26 12.2 W 11 15 6 8 1007.5 - 0.0
06/09:30pm 32.3 28.8 10.2 25 12.7 WSW 19 22 10 12 1007.5 - 0.0
06/09:00pm 31.4 29.0 11.3 29 11.7 WSW 15 17 8 9 1007.4 1007.3 0.0
06/08:30pm 31.3 28.9 11.4 29 11.6 WSW 15 17 8 9 1007.4 - 0.0
06/08:00pm 32.2 29.0 10.0 25 12.7 WSW 17 22 9 12 1007.4 - 0.0
06/07:30pm 32.3 29.2 10.2 25 12.7 WSW 17 22 9 12 1007.0 - 0.0
06/07:00pm 33.0 29.2 11.1 26 12.8 WSW 22 30 12 16 1006.7 - 0.0
06/06:30pm 34.3 30.4 12.2 26 13.2 W 24 30 13 16 1006.1 - 0.0
06/06:00pm 37.5 34.7 11.4 20 15.6 W 17 24 9 13 1005.5 1005.4 0.0
06/05:30pm 36.9 33.9 12.5 23 14.8 W 20 24 11 13 1005.4 - 0.0
06/05:00pm 37.4 34.1 14.0 24 14.5 WSW 24 33 13 18 1005.3 - 0.0
06/04:30pm 38.8 37.4 14.6 24 15.2 NW 15 20 8 11 1005.1 - 0.0
06/04:00pm 38.5 34.5 14.2 23 15.1 NNE 28 32 15 17 1004.6 - 0.0
06/03:30pm 37.5 34.8 16.7 29 13.4 NNE 26 32 14 17 1005.0 - 0.0
06/03:00pm 37.8 34.3 13.5 23 15.0 N 24 30 13 16 1005.4 1005.3 0.0
06/02:30pm 38.3 33.5 8.9 17 17.0 N 24 30 13 16 1005.6 - 0.0
06/02:00pm 37.7 32.9 7.4 15 17.0 N 22 26 12 14 1006.0 - 0.0
06/01:30pm 38.2 33.7 6.8 14 17.6 N 20 24 11 13 1006.4 - 0.0
06/01:00pm 37.1 33.3 7.4 16 16.7 N 17 20 9 11 1006.9 - 0.0
06/12:30pm 36.2 31.8 7.2 17 16.2 NNE 20 24 11 13 1007.4 - 0.0
06/12:00pm 35.3 31.1 7.3 18 15.6 NE 19 24 10 13 1007.8 1007.7 0.0
06/11:30am 34.3 30.4 8.7 20 14.5 ENE 19 24 10 13 1008.1 - 0.0
06/11:00am 34.6 31.2 6.1 17 15.5 ENE 13 20 7 11 1008.3 - 0.0
06/10:30am 35.2 32.3 6.7 17 15.7 ENE 11 15 6 8 1008.6 - 0.0
06/10:00am 34.8 31.8 7.8 19 15.1 ESE 13 17 7 9 1008.7 - 0.0
06/09:30am 34.6 32.7 9.2 21 14.5 SE 9 15 5 8 1008.8 - 0.0
06/09:00am 33.6 32.2 9.7 23 13.7 SSE 7 13 4 7 1008.7 1008.6 0.0
06/08:30am 31.5 29.7 14.5 35 10.4 SSW 17 20 9 11 1008.5 - 0.0
06/08:00am 29.9 28.7 15.0 40 9.1 SSW 15 22 8 12 1008.3 - 0.0
06/07:30am 28.3 25.7 15.0 44 8.1 SSW 22 28 12 15 1008.0 - 0.0
06/07:00am 27.0 24.4 14.9 47 7.3 SSW 22 28 12 15 1007.7 - 0.0
06/06:30am 25.9 23.4 14.1 48 7.0 SSW 20 24 11 13 1007.4 - 0.0
06/06:00am 25.8 23.0 13.2 45 7.4 SSW 20 26 11 14 1006.9 1006.8 0.0
06/05:30am 26.3 23.2 12.3 41 8.1 SSW 20 28 11 15 1006.8 - 0.0
06/05:00am 27.0 23.2 11.0 36 9.1 SSW 22 28 12 15 1006.5 - 0.0
06/04:30am 27.7 24.0 9.5 32 10.1 SSW 19 24 10 13 1006.5 - 0.0
06/04:00am 28.1 24.2 9.4 31 10.4 SSW 20 24 11 13 1006.3 - 0.0
06/03:30am 28.4 24.4 10.6 33 10.1 SSW 22 30 12 16 1006.3 - 0.0
06/03:00am 27.7 24.3 12.4 38 8.9 SSW 22 28 12 15 1006.4 1006.3 0.0
06/02:30am 27.4 24.6 13.1 41 8.4 SSW 20 24 11 13 1006.9 - 0.0
06/02:00am 27.6 24.0 13.0 40 8.6 SSW 24 30 13 16 1006.9 - 0.0
06/01:30am 28.5 24.9 12.0 36 9.6 SSW 22 30 12 16 1007.2 - 0.0
06/01:00am 29.5 25.1 10.3 30 10.9 SW 24 33 13 18 1007.6 - 0.0
06/12:30am 30.6 24.9 8.4 25 12.3 SW 28 35 15 19 1007.6 - 0.0
06/12:00am 30.3 25.8 8.7 26 12.0 SW 22 30 12 16 1007.9 1007.8 0.0
 
Date/Time
WST
Temp
°C
App
Temp
°C
Dew
Point
Rel
Hum
%
Delta-T
°C
Wind Press
QNH
hPa
Press
MSL
hPa
Rain
since 9 am
mm
Dir
 
Spd
km/h
Gust
km/h
Spd
kts
Gust
kts
05/11:30pm 29.6 26.6 12.4 34 10.1 SW 20 26 11 14 1008.3 - 0.0
05/11:00pm 29.5 27.1 14.5 40 9.1 SW 20 26 11 14 1008.6 - 0.0
05/10:30pm 30.1 27.7 14.5 38 9.5 SW 20 24 11 13 1008.7 - 0.0
05/10:00pm 31.2 27.8 12.4 31 11.1 WSW 22 30 12 16 1008.4 - 0.0
05/09:30pm 31.0 28.3 13.5 34 10.5 WSW 20 24 11 13 1008.3 - 0.0
05/09:00pm 30.5 28.8 14.8 38 9.6 WSW 17 20 9 11 1008.1 1008.0 0.0
05/08:30pm 30.5 29.7 17.1 44 8.5 WSW 17 26 9 14 1007.9 - 0.0
05/08:00pm 30.8 29.0 17.8 45 8.3 WSW 24 30 13 16 1007.7 - 0.0
05/07:30pm 31.4 28.2 15.4 38 9.9 WSW 26 32 14 17 1007.2 - 0.0
05/07:00pm 32.9 28.1 11.7 27 12.5 W 28 33 15 18 1006.9 - 0.0
05/06:30pm 34.8 31.3 11.0 23 14.0 W 20 28 11 15 1006.3 - 0.0
05/06:00pm 35.8 31.9 10.8 22 14.7 W 22 28 12 15 1006.0 1005.9 0.0
05/05:30pm 36.8 31.7 9.3 18 15.9 W 26 32 14 17 1005.8 - 0.0
05/05:00pm 37.0 31.5 9.1 18 16.1 W 28 35 15 19 1005.8 - 0.0
05/04:30pm 38.7 35.3 11.1 19 16.5 N 20 24 11 13 1005.4 - 0.0
05/04:00pm 37.7 33.8 12.0 21 15.5 N 24 28 13 15 1005.4 - 0.0
05/03:30pm 35.3 32.9 16.5 32 12.0 N 24 28 13 15 1005.8 - 0.0
05/03:00pm 36.1 33.7 14.3 27 13.5 N 20 26 11 14 1006.0 1005.9 0.0
05/02:30pm 35.9 33.1 13.3 25 13.8 NNE 20 24 11 13 1006.4 - 0.0
05/02:00pm 34.6 32.8 16.1 33 11.7 NNE 20 26 11 14 1006.6 - 0.0
05/01:30pm 34.6 31.7 14.1 29 12.6 NE 22 26 12 14 1006.7 - 0.0
05/01:00pm 33.6 30.7 14.0 30 12.0 NE 22 28 12 15 1007.1 - 0.0
05/12:30pm 34.3 31.8 12.4 26 13.1 ENE 17 20 9 11 1007.4 - 0.0
05/12:00pm 34.1 32.4 13.6 29 12.5 E 15 19 8 10 1007.9 1007.8 0.0
05/11:30am 32.1 30.0 14.7 35 10.7 E 19 24 10 13 1008.5 - 0.0
05/11:00am 32.8 30.3 12.3 28 12.2 E 17 20 9 11 1008.7 - 0.0
05/10:30am 32.3 30.4 14.1 33 11.1 E 17 20 9 11 1009.1 - 0.0
05/10:00am 31.4 30.3 17.4 43 8.9 E 19 22 10 12 1009.4 - 0.0
05/09:30am 33.0 31.2 12.1 28 12.4 SE 13 20 7 11 1009.5 - 0.0
05/09:00am 32.2 31.7 12.5 30 11.7 W 7 11 4 6 1009.5 1009.4 0.0
05/08:30am 31.3 30.6 13.1 33 10.9 SW 9 13 5 7 1009.5 - 0.0
05/08:00am 29.6 29.0 14.6 40 9.1 SW 11 15 6 8 1009.4 - 0.0
05/07:30am 28.2 28.5 15.9 47 7.6 SW 9 15 5 8 1009.4 - 0.0
05/07:00am 25.6 27.7 17.3 60 5.2 WSW 2 7 1 4 1009.3 - 0.0
05/06:30am 22.6 23.0 15.4 64 4.3 SW 7 9 4 5 1009.1 - 0.0
05/06:00am 22.5 22.7 14.3 59 4.8 SSW 6 9 3 5 1008.8 1008.7 0.0
05/05:30am 23.7 23.8 14.4 56 5.5 SW 7 9 4 5 1008.5 - 0.0
05/05:00am 24.0 22.8 14.0 53 5.9 SW 13 15 7 8 1008.2 - 0.0
05/04:30am 26.1 25.6 12.7 43 7.8 W 7 9 4 5 1008.0 - 0.0
05/04:00am 25.9 26.3 11.3 40 8.3 CALM 0 7 0 4 1008.0 - 0.0
05/03:30am 25.6 24.5 11.8 42 7.9 WSW 9 11 5 6 1008.0 - 0.0
05/03:00am 26.5 25.1 12.1 40 8.3 WSW 11 13 6 7 1008.0 1007.9 0.0
05/02:30am 26.9 26.3 14.6 46 7.4 WSW 11 13 6 7 1008.2 - 0.0
05/02:00am 27.3 26.5 16.1 50 6.9 SW 15 20 8 11 1008.5 - 0.0
05/01:30am 26.9 26.7 16.8 54 6.3 SW 13 17 7 9 1008.8 - 0.0
05/01:00am 26.7 27.0 17.8 58 5.6 WSW 13 15 7 8 1009.2 - 0.0
05/12:30am 26.8 27.8 18.7 61 5.2 W 11 13 6 7 1009.5 - 0.0
05/12:00am 26.1 28.7 20.5 71 3.7 WSW 7 9 4 5 1010.0 1009.9 0.0
 
Date/Time
WST
Temp
°C
App
Temp
°C
Dew
Point
Rel
Hum
%
Delta-T
°C
Wind Press
QNH
hPa
Press
MSL
hPa
Rain
since 9 am
mm
Dir
 
Spd
km/h
Gust
km/h
Spd
kts
Gust
kts
04/11:30pm 26.6 28.6 20.8 70 3.8 SSW 11 17 6 9 1010.0 - 0.0
04/11:00pm 26.9 28.5 20.0 66 4.5 S 11 13 6 7 1010.2 - 0.0
04/10:30pm 28.0 29.5 19.7 60 5.4 SW 11 15 6 8 1010.1 - 0.0
04/10:00pm 28.3 29.6 19.4 58 5.8 SW 11 15 6 8 1010.0 - 0.0
04/09:30pm 28.0 29.5 18.8 57 5.9 S 9 13 5 7 1009.7 - 0.0
04/09:00pm 28.8 30.1 19.4 56 6.1 W 11 19 6 10 1009.6 1009.5 0.0
04/08:30pm 29.4 28.9 18.7 52 6.9 WSW 19 24 10 13 1009.2 - 0.0
04/08:00pm 29.6 29.2 18.8 52 7.0 W 19 26 10 14 1008.7 - 0.0
04/07:30pm 29.9 30.0 20.4 56 6.3 W 20 26 11 14 1008.3 - 0.0
04/07:00pm 30.9 30.8 19.6 51 7.4 WNW 19 24 10 13 1008.0 - 0.0
04/06:30pm 33.3 31.1 17.0 37 10.4 W 24 32 13 17 1007.7 - 0.0
04/06:00pm 34.3 31.7 16.9 35 11.1 W 26 33 14 18 1007.5 1007.4 0.0
04/05:30pm 34.6 31.7 17.0 35 11.3 N 28 35 15 19 1006.7 - 0.0
04/05:00pm 35.4 32.0 15.8 31 12.4 NNE 28 35 15 19 1006.4 - 0.0
04/04:30pm 36.7 32.3 14.1 26 14.0 N 30 33 16 18 1006.4 - 0.0
04/04:00pm 35.5 31.3 14.6 28 13.0 N 30 35 16 19 1006.5 - 0.0
04/03:30pm 36.4 32.3 13.9 26 13.9 N 28 37 15 20 1006.9 - 0.0
04/03:00pm 35.4 32.2 16.4 32 12.1 N 28 35 15 19 1007.1 1007.0 0.0
04/02:30pm 34.6 32.2 18.2 37 10.7 N 28 35 15 19 1007.4 - 0.0

Other Formats:

Comma delimited format used in spreadsheet applications
http://www.bom.gov.au/fwo/IDW60801/IDW60801.94302.axf

JavaScript Object Notation format (JSON) in row-major order
http://www.bom.gov.au/fwo/IDW60801/IDW60801.94302.json